sensor_id;sensor_type;location;lat;lon;timestamp;P1;durP1;ratioP1;P2;durP2;ratioP2
62121;SDS011;48108;47.532;19.084;2022-11-15T04:43:38;20.80;;;11.02;;
62121;SDS011;48108;47.532;19.084;2022-11-15T04:46:59;21.30;;;10.80;;
62121;SDS011;48108;47.532;19.084;2022-11-15T04:50:20;21.37;;;10.95;;
62121;SDS011;48108;47.532;19.084;2022-11-15T04:53:41;24.73;;;12.35;;
62121;SDS011;48108;47.532;19.084;2022-11-15T04:57:02;24.02;;;11.70;;
62121;SDS011;48108;47.532;19.084;2022-11-15T05:00:24;19.75;;;10.57;;
62121;SDS011;48108;47.532;19.084;2022-11-15T05:03:45;19.55;;;10.63;;
62121;SDS011;48108;47.532;19.084;2022-11-15T05:07:35;22.73;;;10.82;;
62121;SDS011;48108;47.532;19.084;2022-11-15T05:10:56;18.70;;;9.63;;
62121;SDS011;48108;47.532;19.084;2022-11-15T05:14:17;22.45;;;10.88;;
62121;SDS011;48108;47.532;19.084;2022-11-15T05:17:38;22.98;;;11.30;;
62121;SDS011;48108;47.532;19.084;2022-11-15T05:21:04;20.92;;;11.30;;
62121;SDS011;48108;47.532;19.084;2022-11-15T05:24:31;20.90;;;10.20;;
62121;SDS011;48108;47.532;19.084;2022-11-15T05:27:52;19.33;;;11.23;;
62121;SDS011;48108;47.532;19.084;2022-11-15T05:31:14;19.83;;;11.25;;
62121;SDS011;48108;47.532;19.084;2022-11-15T05:34:37;19.87;;;11.23;;
62121;SDS011;48108;47.532;19.084;2022-11-15T05:37:58;22.40;;;12.00;;
62121;SDS011;48108;47.532;19.084;2022-11-15T05:41:20;22.00;;;11.45;;
62121;SDS011;48108;47.532;19.084;2022-11-15T05:44:47;23.55;;;12.45;;
62121;SDS011;48108;47.532;19.084;2022-11-15T05:48:10;22.67;;;12.25;;
62121;SDS011;48108;47.532;19.084;2022-11-15T05:51:31;21.70;;;11.68;;
62121;SDS011;48108;47.532;19.084;2022-11-15T05:54:52;21.80;;;11.93;;
62121;SDS011;48108;47.532;19.084;2022-11-15T05:58:14;21.30;;;12.75;;
62121;SDS011;48108;47.532;19.084;2022-11-15T06:01:35;23.52;;;11.82;;
62121;SDS011;48108;47.532;19.084;2022-11-15T06:04:56;22.98;;;12.02;;
62121;SDS011;48108;47.532;19.084;2022-11-15T06:08:17;24.25;;;12.00;;
62121;SDS011;48108;47.532;19.084;2022-11-15T06:11:38;21.90;;;12.10;;
62121;SDS011;48108;47.532;19.084;2022-11-15T06:14:59;21.98;;;11.82;;
62121;SDS011;48108;47.532;19.084;2022-11-15T06:18:20;23.00;;;12.77;;
62121;SDS011;48108;47.532;19.084;2022-11-15T06:21:41;22.50;;;12.30;;
62121;SDS011;48108;47.532;19.084;2022-11-15T06:25:02;23.95;;;12.93;;
62121;SDS011;48108;47.532;19.084;2022-11-15T06:28:29;26.00;;;13.25;;
62121;SDS011;48108;47.532;19.084;2022-11-15T06:31:51;24.77;;;12.57;;
62121;SDS011;48108;47.532;19.084;2022-11-15T06:35:13;24.73;;;12.48;;
62121;SDS011;48108;47.532;19.084;2022-11-15T06:38:35;23.38;;;13.38;;
62121;SDS011;48108;47.532;19.084;2022-11-15T06:41:57;24.83;;;12.55;;
62121;SDS011;48108;47.532;19.084;2022-11-15T06:45:18;23.27;;;12.37;;
62121;SDS011;48108;47.532;19.084;2022-11-15T06:48:39;23.23;;;13.13;;
62121;SDS011;48108;47.532;19.084;2022-11-15T06:52:00;26.92;;;14.23;;
62121;SDS011;48108;47.532;19.084;2022-11-15T06:55:21;25.50;;;14.02;;
62121;SDS011;48108;47.532;19.084;2022-11-15T06:58:42;26.67;;;14.63;;
62121;SDS011;48108;47.532;19.084;2022-11-15T07:02:03;27.65;;;14.27;;
62121;SDS011;48108;47.532;19.084;2022-11-15T07:05:24;28.20;;;15.07;;
62121;SDS011;48108;47.532;19.084;2022-11-15T07:08:45;29.55;;;15.13;;
62121;SDS011;48108;47.532;19.084;2022-11-15T07:12:06;30.98;;;15.82;;
62121;SDS011;48108;47.532;19.084;2022-11-15T07:15:27;29.58;;;14.32;;
62121;SDS011;48108;47.532;19.084;2022-11-15T07:18:48;30.55;;;15.10;;
62121;SDS011;48108;47.532;19.084;2022-11-15T07:22:10;28.38;;;14.90;;
62121;SDS011;48108;47.532;19.084;2022-11-15T07:25:31;26.90;;;14.60;;
62121;SDS011;48108;47.532;19.084;2022-11-15T07:28:52;29.27;;;14.85;;
62121;SDS011;48108;47.532;19.084;2022-11-15T07:32:13;26.45;;;14.55;;
62121;SDS011;48108;47.532;19.084;2022-11-15T07:35:34;26.98;;;14.27;;
62121;SDS011;48108;47.532;19.084;2022-11-15T07:38:55;29.42;;;15.13;;
62121;SDS011;48108;47.532;19.084;2022-11-15T07:42:16;28.23;;;15.68;;
62121;SDS011;48108;47.532;19.084;2022-11-15T07:45:56;26.40;;;14.90;;
62121;SDS011;48108;47.532;19.084;2022-11-15T07:49:19;27.67;;;15.85;;
62121;SDS011;48108;47.532;19.084;2022-11-15T07:52:40;26.12;;;14.18;;
62121;SDS011;48108;47.532;19.084;2022-11-15T07:56:01;25.95;;;14.73;;
62121;SDS011;48108;47.532;19.084;2022-11-15T07:59:23;27.27;;;14.30;;
62121;SDS011;48108;47.532;19.084;2022-11-15T08:02:44;28.75;;;15.77;;
62121;SDS011;48108;47.532;19.084;2022-11-15T08:06:05;28.87;;;15.68;;
62121;SDS011;48108;47.532;19.084;2022-11-15T08:09:27;37.80;;;16.55;;
62121;SDS011;48108;47.532;19.084;2022-11-15T08:12:47;26.05;;;15.35;;
62121;SDS011;48108;47.532;19.084;2022-11-15T08:16:09;29.20;;;15.60;;
62121;SDS011;48108;47.532;19.084;2022-11-15T08:19:30;27.77;;;16.02;;
62121;SDS011;48108;47.532;19.084;2022-11-15T08:22:50;33.78;;;16.58;;
62121;SDS011;48108;47.532;19.084;2022-11-15T08:26:12;27.35;;;16.15;;
62121;SDS011;48108;47.532;19.084;2022-11-15T08:29:33;30.73;;;16.08;;
62121;SDS011;48108;47.532;19.084;2022-11-15T08:32:55;26.87;;;15.88;;
62121;SDS011;48108;47.532;19.084;2022-11-15T08:36:18;30.50;;;15.80;;
62121;SDS011;48108;47.532;19.084;2022-11-15T08:39:39;28.27;;;16.75;;
62121;SDS011;48108;47.532;19.084;2022-11-15T08:43:00;28.60;;;16.42;;
62121;SDS011;48108;47.532;19.084;2022-11-15T08:46:24;31.23;;;16.73;;
62121;SDS011;48108;47.532;19.084;2022-11-15T08:49:45;31.92;;;17.62;;
62121;SDS011;48108;47.532;19.084;2022-11-15T08:53:07;33.67;;;17.20;;
62121;SDS011;48108;47.532;19.084;2022-11-15T08:56:29;34.42;;;17.87;;
62121;SDS011;48108;47.532;19.084;2022-11-15T08:59:51;31.67;;;17.98;;
62121;SDS011;48108;47.532;19.084;2022-11-15T09:03:12;34.03;;;18.80;;
62121;SDS011;48108;47.532;19.084;2022-11-15T09:06:33;32.90;;;17.70;;
62121;SDS011;48108;47.532;19.084;2022-11-15T09:09:53;33.70;;;18.85;;
62121;SDS011;48108;47.532;19.084;2022-11-15T09:13:14;34.50;;;18.85;;
62121;SDS011;48108;47.532;19.084;2022-11-15T09:16:35;30.95;;;17.23;;
62121;SDS011;48108;47.532;19.084;2022-11-15T09:19:56;30.67;;;18.80;;
62121;SDS011;48108;47.532;19.084;2022-11-15T09:23:18;32.58;;;17.90;;
62121;SDS011;48108;47.532;19.084;2022-11-15T09:26:39;30.80;;;18.45;;
62121;SDS011;48108;47.532;19.084;2022-11-15T09:30:00;33.05;;;19.08;;
62121;SDS011;48108;47.532;19.084;2022-11-15T09:33:22;32.72;;;19.98;;
62121;SDS011;48108;47.532;19.084;2022-11-15T09:36:43;32.90;;;19.00;;
62121;SDS011;48108;47.532;19.084;2022-11-15T09:40:04;35.22;;;20.37;;
62121;SDS011;48108;47.532;19.084;2022-11-15T09:50:50;39.92;;;24.35;;
62121;SDS011;48108;47.532;19.084;2022-11-15T09:54:04;38.47;;;22.73;;
62121;SDS011;48108;47.532;19.084;2022-11-15T09:57:54;39.13;;;23.27;;
62121;SDS011;48108;47.532;19.084;2022-11-15T10:01:04;38.70;;;22.55;;
62121;SDS011;48108;47.532;19.084;2022-11-15T10:04:14;33.78;;;20.65;;
62121;SDS011;48108;47.532;19.084;2022-11-15T10:10:41;39.03;;;20.85;;
62121;SDS011;48108;47.532;19.084;2022-11-15T10:13:47;33.88;;;18.98;;
62121;SDS011;48108;47.532;19.084;2022-11-15T10:16:59;35.05;;;20.73;;
62121;SDS011;48108;47.532;19.084;2022-11-15T10:20:14;35.15;;;19.85;;
62121;SDS011;48108;47.532;19.084;2022-11-15T10:23:23;37.33;;;22.48;;
62121;SDS011;48108;47.532;19.084;2022-11-15T10:26:26;37.97;;;22.13;;
62121;SDS011;48108;47.532;19.084;2022-11-15T10:29:30;37.33;;;21.30;;
62121;SDS011;48108;47.532;19.084;2022-11-15T10:32:33;34.10;;;21.42;;
62121;SDS011;48108;47.532;19.084;2022-11-15T10:35:38;37.90;;;21.58;;
62121;SDS011;48108;47.532;19.084;2022-11-15T10:41:53;35.63;;;22.02;;
62121;SDS011;48108;47.532;19.084;2022-11-15T10:44:56;34.83;;;20.00;;
62121;SDS011;48108;47.532;19.084;2022-11-15T10:51:19;37.55;;;21.30;;
62121;SDS011;48108;47.532;19.084;2022-11-15T10:54:29;36.20;;;21.00;;
62121;SDS011;48108;47.532;19.084;2022-11-15T10:57:37;31.80;;;19.85;;
62121;SDS011;48108;47.532;19.084;2022-11-15T11:00:43;34.30;;;19.77;;
62121;SDS011;48108;47.532;19.084;2022-11-15T11:03:57;33.42;;;19.40;;
62121;SDS011;48108;47.532;19.084;2022-11-15T11:07:19;34.05;;;18.33;;
62121;SDS011;48108;47.532;19.084;2022-11-15T11:10:26;34.42;;;20.90;;
62121;SDS011;48108;47.532;19.084;2022-11-15T11:13:50;35.13;;;20.10;;
62121;SDS011;48108;47.532;19.084;2022-11-15T11:20:20;39.58;;;20.62;;
62121;SDS011;48108;47.532;19.084;2022-11-15T11:33:24;31.77;;;19.10;;
62121;SDS011;48108;47.532;19.084;2022-11-15T11:40:20;31.30;;;19.20;;
62121;SDS011;48108;47.532;19.084;2022-11-15T11:46:36;31.05;;;20.35;;
62121;SDS011;48108;47.532;19.084;2022-11-15T11:49:51;33.67;;;18.95;;
62121;SDS011;48108;47.532;19.084;2022-11-15T11:53:03;39.00;;;21.08;;
62121;SDS011;48108;47.532;19.084;2022-11-15T11:56:18;35.92;;;21.75;;
62121;SDS011;48108;47.532;19.084;2022-11-15T11:59:37;35.38;;;20.10;;
62121;SDS011;48108;47.532;19.084;2022-11-15T12:13:13;34.40;;;19.00;;
62121;SDS011;48108;47.532;19.084;2022-11-15T12:16:25;36.88;;;20.37;;
62121;SDS011;48108;47.532;19.084;2022-11-15T12:19:30;32.90;;;18.20;;
62121;SDS011;48108;47.532;19.084;2022-11-15T12:28:58;32.90;;;19.02;;
62121;SDS011;48108;47.532;19.084;2022-11-15T12:32:29;32.03;;;19.08;;
62121;SDS011;48108;47.532;19.084;2022-11-15T12:35:39;34.85;;;20.58;;
62121;SDS011;48108;47.532;19.084;2022-11-15T12:45:22;33.45;;;20.25;;
62121;SDS011;48108;47.532;19.084;2022-11-15T12:54:55;37.35;;;21.58;;
62121;SDS011;48108;47.532;19.084;2022-11-15T12:58:19;43.50;;;22.37;;
62121;SDS011;48108;47.532;19.084;2022-11-15T13:04:40;42.15;;;25.20;;
62121;SDS011;48108;47.532;19.084;2022-11-15T13:10:47;43.15;;;25.62;;
62121;SDS011;48108;47.532;19.084;2022-11-15T13:13:50;41.60;;;22.37;;
62121;SDS011;48108;47.532;19.084;2022-11-15T13:16:59;41.85;;;22.70;;
62121;SDS011;48108;47.532;19.084;2022-11-15T13:23:14;44.42;;;23.00;;
62121;SDS011;48108;47.532;19.084;2022-11-15T13:26:18;42.60;;;23.15;;
62121;SDS011;48108;47.532;19.084;2022-11-15T13:29:23;46.03;;;25.42;;
62121;SDS011;48108;47.532;19.084;2022-11-15T13:32:25;46.42;;;23.52;;
62121;SDS011;48108;47.532;19.084;2022-11-15T13:35:29;43.25;;;24.37;;
62121;SDS011;48108;47.532;19.084;2022-11-15T13:38:37;45.00;;;23.15;;
62121;SDS011;48108;47.532;19.084;2022-11-15T13:41:48;41.42;;;22.40;;
62121;SDS011;48108;47.532;19.084;2022-11-15T13:44:56;45.17;;;22.48;;
62121;SDS011;48108;47.532;19.084;2022-11-15T13:48:02;47.75;;;23.52;;
62121;SDS011;48108;47.532;19.084;2022-11-15T13:54:40;38.72;;;21.23;;
62121;SDS011;48108;47.532;19.084;2022-11-15T14:00:59;39.72;;;21.48;;
62121;SDS011;48108;47.532;19.084;2022-11-15T14:04:03;37.55;;;20.90;;
62121;SDS011;48108;47.532;19.084;2022-11-15T14:07:14;37.47;;;20.67;;
62121;SDS011;48108;47.532;19.084;2022-11-15T14:10:26;35.45;;;19.98;;
62121;SDS011;48108;47.532;19.084;2022-11-15T14:13:31;35.80;;;19.63;;
62121;SDS011;48108;47.532;19.084;2022-11-15T14:19:47;34.40;;;18.55;;
62121;SDS011;48108;47.532;19.084;2022-11-15T14:22:56;35.33;;;19.55;;
62121;SDS011;48108;47.532;19.084;2022-11-15T14:26:00;39.40;;;21.23;;
62121;SDS011;48108;47.532;19.084;2022-11-15T14:29:27;41.85;;;21.23;;
62121;SDS011;48108;47.532;19.084;2022-11-15T14:33:11;34.50;;;19.25;;
62121;SDS011;48108;47.532;19.084;2022-11-15T14:36:05;37.70;;;18.83;;
62121;SDS011;48108;47.532;19.084;2022-11-15T14:39:16;35.63;;;18.58;;
62121;SDS011;48108;47.532;19.084;2022-11-15T14:42:19;38.28;;;20.58;;
62121;SDS011;48108;47.532;19.084;2022-11-15T14:45:23;40.17;;;20.88;;
62121;SDS011;48108;47.532;19.084;2022-11-15T14:48:25;41.15;;;21.02;;
62121;SDS011;48108;47.532;19.084;2022-11-15T14:51:28;39.70;;;20.12;;
62121;SDS011;48108;47.532;19.084;2022-11-15T14:54:31;38.90;;;19.77;;
62121;SDS011;48108;47.532;19.084;2022-11-15T14:57:33;36.53;;;18.80;;
62121;SDS011;48108;47.532;19.084;2022-11-15T15:00:39;35.15;;;18.10;;
62121;SDS011;48108;47.532;19.084;2022-11-15T15:03:43;32.13;;;17.77;;
62121;SDS011;48108;47.532;19.084;2022-11-15T15:06:46;35.97;;;17.58;;
62121;SDS011;48108;47.532;19.084;2022-11-15T15:09:49;35.17;;;17.98;;
62121;SDS011;48108;47.532;19.084;2022-11-15T15:12:52;31.77;;;17.73;;
62121;SDS011;48108;47.532;19.084;2022-11-15T15:15:57;35.25;;;18.55;;
62121;SDS011;48108;47.532;19.084;2022-11-15T15:19:00;34.60;;;18.42;;
62121;SDS011;48108;47.532;19.084;2022-11-15T15:22:03;34.20;;;18.87;;
62121;SDS011;48108;47.532;19.084;2022-11-15T15:25:19;35.30;;;18.62;;
62121;SDS011;48108;47.532;19.084;2022-11-15T15:28:25;34.60;;;18.35;;
62121;SDS011;48108;47.532;19.084;2022-11-15T15:31:35;30.98;;;16.40;;
62121;SDS011;48108;47.532;19.084;2022-11-15T15:34:38;30.60;;;17.15;;
62121;SDS011;48108;47.532;19.084;2022-11-15T15:37:42;33.85;;;17.42;;
62121;SDS011;48108;47.532;19.084;2022-11-15T15:40:47;32.85;;;18.42;;
62121;SDS011;48108;47.532;19.084;2022-11-15T15:43:53;31.67;;;16.98;;
62121;SDS011;48108;47.532;19.084;2022-11-15T15:46:55;31.65;;;16.67;;
62121;SDS011;48108;47.532;19.084;2022-11-15T15:50:00;27.92;;;16.02;;
62121;SDS011;48108;47.532;19.084;2022-11-15T15:53:03;29.95;;;15.73;;
62121;SDS011;48108;47.532;19.084;2022-11-15T15:56:06;31.05;;;16.15;;
62121;SDS011;48108;47.532;19.084;2022-11-15T15:59:10;28.52;;;16.00;;
62121;SDS011;48108;47.532;19.084;2022-11-15T16:02:12;34.05;;;17.70;;
62121;SDS011;48108;47.532;19.084;2022-11-15T16:05:16;32.45;;;18.05;;
62121;SDS011;48108;47.532;19.084;2022-11-15T16:08:20;29.63;;;16.17;;
62121;SDS011;48108;47.532;19.084;2022-11-15T16:11:25;33.58;;;17.92;;
62121;SDS011;48108;47.532;19.084;2022-11-15T16:14:27;29.35;;;16.02;;
62121;SDS011;48108;47.532;19.084;2022-11-15T16:17:31;33.13;;;17.55;;
62121;SDS011;48108;47.532;19.084;2022-11-15T16:20:38;30.40;;;16.65;;
62121;SDS011;48108;47.532;19.084;2022-11-15T16:23:41;28.25;;;16.20;;
62121;SDS011;48108;47.532;19.084;2022-11-15T16:26:44;29.77;;;15.32;;
62121;SDS011;48108;47.532;19.084;2022-11-15T16:29:48;33.85;;;17.08;;
62121;SDS011;48108;47.532;19.084;2022-11-15T16:32:51;33.10;;;16.40;;
62121;SDS011;48108;47.532;19.084;2022-11-15T16:35:55;32.05;;;17.27;;
62121;SDS011;48108;47.532;19.084;2022-11-15T16:38:58;34.63;;;17.90;;
62121;SDS011;48108;47.532;19.084;2022-11-15T16:42:02;37.55;;;17.52;;
62121;SDS011;48108;47.532;19.084;2022-11-15T16:45:04;36.30;;;17.65;;
62121;SDS011;48108;47.532;19.084;2022-11-15T16:51:24;35.20;;;17.10;;
62121;SDS011;48108;47.532;19.084;2022-11-15T16:54:27;33.53;;;17.52;;
62121;SDS011;48108;47.532;19.084;2022-11-15T16:57:30;34.88;;;18.52;;
62121;SDS011;48108;47.532;19.084;2022-11-15T17:00:33;32.50;;;16.95;;
62121;SDS011;48108;47.532;19.084;2022-11-15T17:03:36;37.95;;;18.92;;
62121;SDS011;48108;47.532;19.084;2022-11-15T17:06:39;33.47;;;17.42;;
62121;SDS011;48108;47.532;19.084;2022-11-15T17:09:43;39.83;;;19.67;;
62121;SDS011;48108;47.532;19.084;2022-11-15T17:12:46;39.03;;;19.70;;
62121;SDS011;48108;47.532;19.084;2022-11-15T17:15:48;39.55;;;20.25;;
62121;SDS011;48108;47.532;19.084;2022-11-15T17:18:51;40.90;;;20.23;;
62121;SDS011;48108;47.532;19.084;2022-11-15T17:21:54;38.17;;;19.75;;
